createdAt,value
2022-12-01T00:01:23.999Z,102229.53
2022-12-01T00:03:51.023Z,102232.22
2022-12-01T00:06:21.632Z,102224.34
2022-12-01T00:09:12.976Z,102223.59
2022-12-01T00:11:42.277Z,102221.81
2022-12-01T00:14:09.222Z,102216.91
2022-12-01T00:16:36.417Z,102222.84
2022-12-01T00:19:03.562Z,102219.34
2022-12-01T00:21:30.557Z,102210.13
2022-12-01T00:23:58.608Z,102220.31
2022-12-01T00:26:27.261Z,102219.44
2022-12-01T00:28:58.772Z,102216.97
2022-12-01T00:31:27.500Z,102221.06
2022-12-01T00:33:55.318Z,102221.91
2022-12-01T00:36:23.049Z,102222.72
2022-12-01T00:38:54.163Z,102226.09
2022-12-01T00:41:22.650Z,102223.47
2022-12-01T00:43:50.895Z,102214.06
2022-12-01T00:46:18.615Z,102213.91
2022-12-01T00:48:45.610Z,102213.88
2022-12-01T00:51:12.609Z,102214.66
2022-12-01T00:53:39.619Z,102223.22
2022-12-01T00:56:07.045Z,102220.78
2022-12-01T00:58:34.029Z,102221.53
2022-12-01T01:01:02.645Z,102223.38
2022-12-01T01:03:32.412Z,102229.25
2022-12-01T01:06:10.620Z,102231.91
2022-12-01T01:08:37.877Z,102225.88
2022-12-01T01:11:06.506Z,102231.06
2022-12-01T01:13:34.158Z,102237.09
2022-12-01T01:16:10.923Z,102241.34
2022-12-01T01:18:37.923Z,102237.94
2022-12-01T01:21:11.127Z,102234.53
2022-12-01T01:23:38.890Z,102243.81
2022-12-01T01:26:21.606Z,102235.41
2022-12-01T01:28:50.447Z,102240.47
2022-12-01T01:31:23.174Z,102238.81
2022-12-01T01:33:51.017Z,102242.16
2022-12-01T01:36:19.365Z,102237.91
2022-12-01T01:38:47.258Z,102233.44
2022-12-01T01:41:14.687Z,102236.91
2022-12-01T01:44:01.698Z,102239.72
2022-12-01T01:46:35.097Z,102236.25
2022-12-01T01:49:13.672Z,102236.25
2022-12-01T01:51:53.220Z,102243.13
2022-12-01T01:54:29.001Z,102242.13
2022-12-01T01:56:59.860Z,102238.84
2022-12-01T01:59:49.089Z,102240.56
2022-12-01T02:02:16.620Z,102243.22
2022-12-01T02:04:54.684Z,102238.03
2022-12-01T02:07:21.785Z,102237.22
2022-12-01T02:09:49.183Z,102241.53
2022-12-01T02:12:20.437Z,102238.97
2022-12-01T02:15:22.909Z,102238.13
2022-12-01T02:18:59.756Z,102235.50
2022-12-01T02:21:40.334Z,102230.47
2022-12-01T02:24:52.139Z,102226.16
2022-12-01T02:27:46.816Z,102226.06
2022-12-01T02:30:34.479Z,102224.31
2022-12-01T02:33:39.526Z,102223.53
2022-12-01T02:36:50.856Z,102219.22
2022-12-01T02:39:42.338Z,102220.09
2022-12-01T02:42:45.199Z,102216.66
2022-12-01T02:45:18.144Z,102221.78
2022-12-01T02:47:45.968Z,102215.66
2022-12-01T02:50:13.462Z,102217.50
2022-12-01T02:52:42.679Z,102217.44
2022-12-01T02:55:09.753Z,102219.16
2022-12-01T02:57:36.727Z,102214.97
2022-12-01T03:00:06.684Z,102212.44
2022-12-01T03:02:58.214Z,102214.88
2022-12-01T03:05:45.525Z,102218.22
2022-12-01T03:08:50.041Z,102214.03
2022-12-01T03:11:29.069Z,102223.47
2022-12-01T03:14:13.926Z,102214.97
2022-12-01T03:16:54.321Z,102206.31
2022-12-01T03:19:48.131Z,102217.38
2022-12-01T03:22:32.350Z,102220.03
2022-12-01T03:25:01.816Z,102218.47
2022-12-01T03:27:33.396Z,102211.50
2022-12-01T03:30:02.527Z,102216.72
2022-12-01T03:32:48.399Z,102214.94
2022-12-01T03:35:31.054Z,102216.63
2022-12-01T03:38:09.324Z,102211.59
2022-12-01T03:40:38.537Z,102212.38
2022-12-01T03:43:18.654Z,102212.47
2022-12-01T03:46:05.859Z,102206.44
2022-12-01T03:48:33.137Z,102214.34
2022-12-01T03:51:16.452Z,102216.91
2022-12-01T03:54:07.562Z,102217.78
2022-12-01T03:56:43.703Z,102217.00
2022-12-01T03:59:11.365Z,102216.97
2022-12-01T04:01:38.468Z,102217.00
2022-12-01T04:04:12.824Z,102212.81
2022-12-01T04:06:44.649Z,102221.44
2022-12-01T04:09:11.699Z,102223.09
2022-12-01T04:11:57.824Z,102217.97
2022-12-01T04:14:24.915Z,102234.13
2022-12-01T04:16:52.032Z,102237.56
2022-12-01T04:19:19.080Z,102233.31
2022-12-01T04:21:46.205Z,102238.44
2022-12-01T04:24:15.305Z,102232.41
2022-12-01T04:26:43.322Z,102231.56
2022-12-01T04:29:12.258Z,102229.94
2022-12-01T04:31:39.748Z,102236.00
2022-12-01T04:34:07.799Z,102230.09
2022-12-01T04:36:35.764Z,102230.94
2022-12-01T04:39:03.922Z,102241.22
2022-12-01T04:41:31.131Z,102232.56
2022-12-01T04:43:58.182Z,102239.50
2022-12-01T04:46:26.114Z,102239.53
2022-12-01T04:48:53.312Z,102239.56
2022-12-01T04:51:21.261Z,102239.59
2022-12-01T04:53:50.610Z,102240.44
2022-12-01T04:56:17.780Z,102241.31
2022-12-01T04:58:45.164Z,102247.22
2022-12-01T05:01:16.214Z,102246.19
2022-12-01T05:03:49.372Z,102252.19
2022-12-01T05:06:24.717Z,102257.22
2022-12-01T05:08:57.203Z,102255.50
2022-12-01T05:11:26.931Z,102255.41
2022-12-01T05:13:54.081Z,102257.19
2022-12-01T05:16:29.446Z,102255.59
2022-12-01T05:19:20.811Z,102258.19
2022-12-01T05:21:50.395Z,102249.56
2022-12-01T05:24:19.266Z,102249.50
2022-12-01T05:26:46.954Z,102248.75
2022-12-01T05:29:14.472Z,102256.44
2022-12-01T05:31:41.818Z,102259.88
2022-12-01T05:34:09.437Z,102263.31
2022-12-01T05:36:36.609Z,102259.16
2022-12-01T05:39:04.638Z,102264.09
2022-12-01T05:41:31.950Z,102262.38
2022-12-01T05:43:59.162Z,102267.59
2022-12-01T05:46:26.358Z,102264.91
2022-12-01T05:48:53.396Z,102268.38
2022-12-01T05:51:23.479Z,102270.94
2022-12-01T05:53:50.478Z,102270.06
2022-12-01T05:56:17.486Z,102272.69
2022-12-01T05:58:45.244Z,102273.53
2022-12-01T06:01:12.248Z,102272.81
2022-12-01T06:03:39.466Z,102283.13
2022-12-01T06:06:06.533Z,102274.53
2022-12-01T06:08:34.992Z,102278.00
2022-12-01T06:11:02.096Z,102272.09
2022-12-01T06:13:29.055Z,102270.31
2022-12-01T06:16:04.146Z,102269.53
2022-12-01T06:18:36.063Z,102270.38
2022-12-01T06:21:07.728Z,102274.72
2022-12-01T06:23:35.746Z,102276.34
2022-12-01T06:26:03.205Z,102267.81
2022-12-01T06:28:30.255Z,102287.59
2022-12-01T06:31:02.934Z,102275.50
2022-12-01T06:33:31.761Z,102283.16
2022-12-01T06:36:01.940Z,102284.06
2022-12-01T06:38:35.132Z,102284.91
2022-12-01T06:41:03.513Z,102284.88
2022-12-01T06:43:30.905Z,102286.53
2022-12-01T06:46:02.065Z,102284.06
2022-12-01T06:48:31.294Z,102296.78
2022-12-01T06:51:01.737Z,102293.44
2022-12-01T06:53:29.557Z,102290.03
2022-12-01T06:56:04.755Z,102291.72
2022-12-01T06:58:32.599Z,102293.50
2022-12-01T07:01:00.283Z,102302.94
2022-12-01T07:03:28.850Z,102302.06
2022-12-01T07:06:02.568Z,102299.34
2022-12-01T07:08:31.586Z,102299.31
2022-12-01T07:11:08.889Z,102298.47
2022-12-01T07:13:35.990Z,102296.75
2022-12-01T07:16:04.276Z,102305.31
2022-12-01T07:18:33.235Z,102302.63
2022-12-01T07:21:08.267Z,102306.88
2022-12-01T07:23:35.761Z,102303.50
2022-12-01T07:26:12.660Z,102308.75
2022-12-01T07:28:39.709Z,102301.81
2022-12-01T07:31:19.219Z,102303.66
2022-12-01T07:33:46.585Z,102291.72
2022-12-01T07:36:14.417Z,102299.41
2022-12-01T07:38:42.303Z,102308.06
2022-12-01T07:41:14.123Z,102303.78
2022-12-01T07:43:42.157Z,102299.50
2022-12-01T07:46:18.748Z,102303.72
2022-12-01T07:48:49.177Z,102301.13
2022-12-01T07:51:17.635Z,102302.03
2022-12-01T07:53:47.212Z,102309.78
2022-12-01T07:56:14.888Z,102307.16
2022-12-01T07:58:42.784Z,102310.47
2022-12-01T08:01:15.239Z,102306.28
2022-12-01T08:03:42.808Z,102312.28
2022-12-01T08:06:11.609Z,102314.88
2022-12-01T08:08:41.125Z,102311.25
2022-12-01T08:11:21.738Z,102320.69
2022-12-01T08:13:50.142Z,102314.75
2022-12-01T08:16:23.964Z,102312.97
2022-12-01T08:18:51.272Z,102319.13
2022-12-01T08:21:22.949Z,102319.06
2022-12-01T08:23:57.804Z,102328.56
2022-12-01T08:26:26.480Z,102326.03
2022-12-01T08:28:53.538Z,102328.59
2022-12-01T08:31:35.593Z,102330.22
2022-12-01T08:34:06.918Z,102330.28
2022-12-01T08:36:35.436Z,102335.38
2022-12-01T08:39:02.448Z,102329.38
2022-12-01T08:41:31.373Z,102336.28
2022-12-01T08:43:59.832Z,102330.41
2022-12-01T08:46:33.052Z,102329.44
2022-12-01T08:49:00.828Z,102330.19
2022-12-01T08:51:28.771Z,102324.97
2022-12-01T08:53:58.129Z,102330.13
2022-12-01T08:56:39.349Z,102328.31
2022-12-01T08:59:07.208Z,102329.22
2022-12-01T09:01:34.938Z,102324.88
2022-12-01T09:04:06.346Z,102327.41
2022-12-01T09:06:42.945Z,102326.69
2022-12-01T09:09:14.446Z,102339.66
2022-12-01T09:11:43.876Z,102333.72
2022-12-01T09:14:16.790Z,102342.28
2022-12-01T09:16:46.572Z,102339.75
2022-12-01T09:19:19.231Z,102339.75
2022-12-01T09:21:50.562Z,102335.41
2022-12-01T09:24:17.587Z,102333.66
2022-12-01T09:26:44.591Z,102334.50
2022-12-01T09:29:15.676Z,102334.59
2022-12-01T09:31:43.458Z,102332.84
2022-12-01T09:34:19.175Z,102321.69
2022-12-01T09:36:50.512Z,102323.34
2022-12-01T09:39:21.290Z,102321.53
2022-12-01T09:42:15.392Z,102323.31
2022-12-01T09:44:57.078Z,102324.94
2022-12-01T09:47:31.039Z,102323.03
2022-12-01T09:50:21.872Z,102326.56
2022-12-01T09:53:08.430Z,102334.19
2022-12-01T09:55:36.167Z,102326.56
2022-12-01T09:58:05.610Z,102320.66
2022-12-01T10:00:42.195Z,102320.50
2022-12-01T10:03:29.262Z,102318.97
2022-12-01T10:06:26.586Z,102310.41
2022-12-01T10:09:26.250Z,102306.09
2022-12-01T10:12:13.351Z,102306.00
2022-12-01T10:14:47.408Z,102309.50
2022-12-01T10:18:08.834Z,102309.31
2022-12-01T10:21:16.528Z,102306.00
2022-12-01T10:24:20.274Z,102305.00
2022-12-01T10:27:14.161Z,102312.84
2022-12-01T10:30:19.151Z,102306.50
2022-12-01T10:32:58.162Z,102305.59
2022-12-01T10:35:32.108Z,102301.38
2022-12-01T10:38:23.428Z,102303.16
2022-12-01T10:40:51.557Z,102309.09
2022-12-01T10:43:18.684Z,102314.13
2022-12-01T10:45:45.958Z,102307.34
2022-12-01T10:48:23.156Z,102303.88
2022-12-01T10:50:57.585Z,102291.81
2022-12-01T10:53:25.265Z,102292.91
2022-12-01T10:56:13.909Z,102296.34
2022-12-01T10:58:51.856Z,102298.88
2022-12-01T11:01:24.242Z,102294.44
2022-12-01T11:04:45.045Z,102296.59
2022-12-01T11:07:25.971Z,102294.03
2022-12-01T11:10:24.748Z,102292.44
2022-12-01T11:13:19.156Z,102287.78
2022-12-01T11:16:04.058Z,102298.84
2022-12-01T11:18:38.903Z,102295.78
2022-12-01T11:21:28.748Z,102300.00
2022-12-01T11:23:57.019Z,102293.16
2022-12-01T11:26:30.397Z,102296.72
2022-12-01T11:29:27.612Z,102287.31
2022-12-01T11:31:56.963Z,102280.69
2022-12-01T11:34:34.407Z,102274.84
2022-12-01T11:37:07.671Z,102269.53
2022-12-01T11:39:42.431Z,102267.59
2022-12-01T11:42:21.397Z,102260.13
2022-12-01T11:44:54.329Z,102262.56
2022-12-01T11:47:28.663Z,102267.16
2022-12-01T11:50:03.782Z,102274.59
2022-12-01T11:52:47.564Z,102276.03
2022-12-01T11:55:15.072Z,102271.88
2022-12-01T11:57:46.616Z,102273.31
2022-12-01T12:00:30.543Z,102283.84
2022-12-01T12:03:20.550Z,102277.78
2022-12-01T12:09:34.286Z,102268.75
2022-12-01T12:12:48.632Z,102267.88
2022-12-01T12:15:51.925Z,102270.53
2022-12-01T12:19:22.426Z,102272.97
2022-12-01T12:22:56.139Z,102262.84
2022-12-01T12:26:03.060Z,102261.94
2022-12-01T12:29:02.558Z,102263.56
2022-12-01T12:32:33.170Z,102264.28
2022-12-01T12:35:34.419Z,102266.16
2022-12-01T12:38:44.706Z,102264.38
2022-12-01T12:41:33.446Z,102267.00
2022-12-01T12:44:41.508Z,102265.97
2022-12-01T12:48:01.334Z,102263.47
2022-12-01T12:50:44.857Z,102265.28
2022-12-01T12:53:24.429Z,102261.13
2022-12-01T12:55:58.181Z,102255.84
2022-12-01T12:58:53.424Z,102258.06
2022-12-01T13:01:41.398Z,102267.53
2022-12-01T13:04:21.118Z,102257.50
2022-12-01T13:07:07.958Z,102269.25
2022-12-01T13:10:10.066Z,102261.81
2022-12-01T13:12:45.777Z,102257.31
2022-12-01T13:15:20.621Z,102256.66
2022-12-01T13:18:13.454Z,102257.53
2022-12-01T13:20:41.849Z,102257.38
2022-12-01T13:23:17.787Z,102259.97
2022-12-01T13:25:52.842Z,102263.63
2022-12-01T13:28:27.615Z,102263.56
2022-12-01T13:31:08.970Z,102259.41
2022-12-01T13:33:56.025Z,102264.38
2022-12-01T13:36:45.794Z,102262.47
2022-12-01T13:39:28.650Z,102257.41
2022-12-01T13:42:24.758Z,102258.22
2022-12-01T13:45:10.309Z,102255.59
2022-12-01T13:47:54.660Z,102259.97
2022-12-01T13:50:43.588Z,102252.81
2022-12-01T13:53:32.237Z,102254.72
2022-12-01T13:56:17.329Z,102255.69
2022-12-01T13:58:53.121Z,102260.13
2022-12-01T14:01:20.748Z,102258.44
2022-12-01T14:04:02.923Z,102258.16
2022-12-01T14:06:51.359Z,102253.25
2022-12-01T14:10:07.103Z,102253.22
2022-12-01T14:12:37.834Z,102249.72
2022-12-01T14:15:43.151Z,102248.97
2022-12-01T14:18:51.759Z,102252.28
2022-12-01T14:21:46.712Z,102249.00
2022-12-01T14:24:34.364Z,102254.09
2022-12-01T14:27:04.555Z,102247.22
2022-12-01T14:29:42.864Z,102254.28
2022-12-01T14:32:09.738Z,102254.28
2022-12-01T14:34:38.959Z,102251.66
2022-12-01T14:37:23.096Z,102245.63
2022-12-01T14:40:03.611Z,102254.22
2022-12-01T14:43:01.708Z,102245.56
2022-12-01T14:46:01.372Z,102246.50
2022-12-01T14:48:55.375Z,102254.13
2022-12-01T14:51:33.302Z,102252.41
2022-12-01T14:54:10.387Z,102250.69
2022-12-01T14:56:38.921Z,102247.28
2022-12-01T14:59:26.978Z,102254.13
2022-12-01T15:02:08.820Z,102238.66
2022-12-01T15:05:09.715Z,102243.94
2022-12-01T15:08:06.827Z,102247.31
2022-12-01T15:11:05.291Z,102240.69
2022-12-01T15:13:57.458Z,102245.63
2022-12-01T15:16:32.325Z,102244.84
2022-12-01T15:18:59.569Z,102242.38
2022-12-01T15:21:31.185Z,102244.00
2022-12-01T15:24:06.462Z,102246.44
2022-12-01T15:26:47.812Z,102246.47
2022-12-01T15:29:46.828Z,102249.88
2022-12-01T15:32:18.655Z,102242.13
2022-12-01T15:34:50.889Z,102247.38
2022-12-01T15:37:27.715Z,102243.97
2022-12-01T15:43:15.540Z,102239.78
2022-12-01T15:45:51.567Z,102240.53
2022-12-01T15:48:34.506Z,102242.38
2022-12-01T15:51:26.707Z,102242.50
2022-12-01T15:54:01.818Z,102244.06
2022-12-01T15:56:40.968Z,102240.63
2022-12-01T15:59:14.114Z,102245.03
2022-12-01T16:01:43.878Z,102242.41
2022-12-01T16:04:32.268Z,102239.03
2022-12-01T16:07:10.087Z,102239.66
2022-12-01T16:09:57.863Z,102241.47
2022-12-01T16:12:33.024Z,102243.13
2022-12-01T16:15:18.556Z,102246.66
2022-12-01T16:17:53.842Z,102230.47
2022-12-01T16:20:30.777Z,102236.31
2022-12-01T16:23:04.549Z,102232.06
2022-12-01T16:25:45.232Z,102242.34
2022-12-01T16:28:44.647Z,102238.06
2022-12-01T16:31:19.636Z,102238.94
2022-12-01T16:33:47.244Z,102235.50
2022-12-01T16:36:14.781Z,102238.09
2022-12-01T16:38:41.837Z,102238.00
2022-12-01T16:41:18.385Z,102232.97
2022-12-01T16:44:05.798Z,102238.13
2022-12-01T16:46:34.615Z,102234.75
2022-12-01T16:49:01.685Z,102232.09
2022-12-01T16:51:35.446Z,102238.94
2022-12-01T16:54:05.341Z,102233.75
2022-12-01T16:56:32.762Z,102238.94
2022-12-01T16:59:01.652Z,102240.66
2022-12-01T17:01:30.776Z,102231.25
2022-12-01T17:03:57.818Z,102232.16
2022-12-01T17:06:24.892Z,102223.59
2022-12-01T17:08:51.920Z,102229.53
2022-12-01T17:11:19.054Z,102232.94
2022-12-01T17:13:46.059Z,102226.09
2022-12-01T17:16:18.209Z,102231.22
2022-12-01T17:18:45.814Z,102237.13
2022-12-01T17:21:13.057Z,102235.50
2022-12-01T17:23:40.571Z,102232.91
2022-12-01T17:26:14.004Z,102226.84
2022-12-01T17:28:41.702Z,102228.53
2022-12-01T17:31:09.505Z,102225.09
2022-12-01T17:33:37.161Z,102230.13
2022-12-01T17:36:12.314Z,102233.66
2022-12-01T17:38:45.255Z,102235.22
2022-12-01T17:41:21.728Z,102232.75
2022-12-01T17:43:49.154Z,102229.34
2022-12-01T17:46:16.573Z,102225.94
2022-12-01T17:48:46.251Z,102228.50
2022-12-01T17:51:14.567Z,102221.53
2022-12-01T17:53:41.590Z,102225.16
2022-12-01T17:56:11.999Z,102229.28
2022-12-01T17:58:39.990Z,102221.59
2022-12-01T18:01:17.875Z,102228.31
2022-12-01T18:03:45.198Z,102224.19
2022-12-01T18:06:13.626Z,102225.84
2022-12-01T18:08:41.961Z,102226.69
2022-12-01T18:11:14.495Z,102224.25
2022-12-01T18:13:49.362Z,102226.69
2022-12-01T18:16:27.029Z,102224.97
2022-12-01T18:18:57.568Z,102233.56
2022-12-01T18:21:26.556Z,102226.63
2022-12-01T18:24:03.073Z,102229.25
2022-12-01T18:26:33.452Z,102223.19
2022-12-01T18:29:07.658Z,102227.53
2022-12-01T18:31:35.995Z,102225.91
2022-12-01T18:34:06.755Z,102230.19
2022-12-01T18:36:40.916Z,102235.28
2022-12-01T18:39:10.947Z,102219.69
2022-12-01T18:41:38.782Z,102226.78
2022-12-01T18:44:06.298Z,102223.22
2022-12-01T18:46:34.426Z,102224.97
2022-12-01T18:49:02.858Z,102218.97
2022-12-01T18:51:33.847Z,102223.25
2022-12-01T18:54:03.400Z,102221.66
2022-12-01T18:56:31.843Z,102224.13
2022-12-01T18:59:04.822Z,102219.88
2022-12-01T19:01:36.958Z,102221.63
2022-12-01T19:04:06.579Z,102220.72
2022-12-01T19:06:36.431Z,102220.72
2022-12-01T19:09:07.888Z,102223.31
2022-12-01T19:11:35.137Z,102220.72
2022-12-01T19:14:03.455Z,102213.81
2022-12-01T19:16:33.395Z,102219.81
2022-12-01T19:19:01.798Z,102216.41
2022-12-01T19:21:28.778Z,102215.50
2022-12-01T19:23:56.125Z,102211.31
2022-12-01T19:26:23.980Z,102211.16
2022-12-01T19:28:50.971Z,102218.91
2022-12-01T19:31:25.294Z,102219.81
2022-12-01T19:33:54.090Z,102213.88
2022-12-01T19:36:25.759Z,102216.34
2022-12-01T19:38:55.660Z,102216.34
2022-12-01T19:41:25.119Z,102220.69
2022-12-01T19:43:54.021Z,102213.81
2022-12-01T19:46:25.103Z,102218.16
2022-12-01T19:49:02.895Z,102217.31
2022-12-01T19:51:37.393Z,102224.91
2022-12-01T19:54:13.058Z,102225.91
2022-12-01T19:56:40.050Z,102233.66
2022-12-01T19:59:07.829Z,102238.78
2022-12-01T20:01:34.906Z,102237.81
2022-12-01T20:04:01.933Z,102234.44
2022-12-01T20:06:32.660Z,102233.78
2022-12-01T20:09:04.328Z,102241.34
2022-12-01T20:11:32.851Z,102234.50
2022-12-01T20:13:59.861Z,102233.63
2022-12-01T20:16:30.374Z,102237.13
2022-12-01T20:19:02.670Z,102233.59
2022-12-01T20:21:42.557Z,102231.13
2022-12-01T20:24:15.153Z,102231.94
2022-12-01T20:26:52.394Z,102231.03
2022-12-01T20:29:24.163Z,102241.34
2022-12-01T20:31:54.335Z,102241.41
2022-12-01T20:34:28.921Z,102244.69
2022-12-01T20:36:56.759Z,102236.09
2022-12-01T20:39:24.643Z,102240.41
2022-12-01T20:41:51.728Z,102239.63
2022-12-01T20:44:19.368Z,102236.22
2022-12-01T20:46:47.451Z,102230.19
2022-12-01T20:49:17.453Z,102229.22
2022-12-01T20:51:45.248Z,102233.56
2022-12-01T20:54:30.919Z,102232.78
2022-12-01T20:56:58.883Z,102232.75
2022-12-01T20:59:27.009Z,102228.41
2022-12-01T21:01:54.248Z,102233.50
2022-12-01T21:04:21.259Z,102232.78
2022-12-01T21:06:49.900Z,102228.34
2022-12-01T21:09:17.971Z,102224.97
2022-12-01T21:12:09.414Z,102222.41
2022-12-01T21:14:52.178Z,102221.53
2022-12-01T21:17:35.887Z,102224.03
2022-12-01T21:20:33.798Z,102226.66
2022-12-01T21:23:24.640Z,102228.47
2022-12-01T21:25:51.735Z,102226.69
2022-12-01T21:28:24.087Z,102229.38
2022-12-01T21:31:14.731Z,102226.69
2022-12-01T21:33:42.721Z,102232.72
2022-12-01T21:36:22.537Z,102223.25
2022-12-01T21:39:09.281Z,102219.03
2022-12-01T21:41:37.790Z,102224.09
2022-12-01T21:44:23.827Z,102217.25
2022-12-01T21:46:56.516Z,102220.63
2022-12-01T21:49:39.973Z,102215.59
2022-12-01T21:52:33.098Z,102212.16
2022-12-01T21:55:23.176Z,102214.66
2022-12-01T21:57:53.593Z,102206.88
2022-12-01T22:00:35.383Z,102213.75
2022-12-01T22:03:08.496Z,102205.19
2022-12-01T22:06:13.451Z,102207.00
2022-12-01T22:08:44.921Z,102203.50
2022-12-01T22:11:22.234Z,102207.94
2022-12-01T22:14:16.532Z,102209.56
2022-12-01T22:16:51.339Z,102197.44
2022-12-01T22:19:42.429Z,102192.28
2022-12-01T22:22:09.197Z,102203.47
2022-12-01T22:24:49.579Z,102191.56
2022-12-01T22:27:38.870Z,102195.94
2022-12-01T22:30:05.676Z,102192.41
2022-12-01T22:32:57.112Z,102190.78
2022-12-01T22:35:45.019Z,102199.28
2022-12-01T22:38:37.286Z,102196.66
2022-12-01T22:41:14.133Z,102202.72
2022-12-01T22:44:03.088Z,102199.22
2022-12-01T22:46:40.423Z,102193.22
2022-12-01T22:49:10.361Z,102194.16
2022-12-01T22:52:00.665Z,102193.19
2022-12-01T22:54:39.557Z,102186.31
2022-12-01T22:57:34.972Z,102187.22
2022-12-01T23:00:31.372Z,102189.72
2022-12-01T23:02:59.396Z,102188.06
2022-12-01T23:05:30.624Z,102184.00
2022-12-01T23:07:57.965Z,102178.72
2022-12-01T23:10:31.252Z,102177.88
2022-12-01T23:13:13.209Z,102177.03
2022-12-01T23:15:45.120Z,102174.44
2022-12-01T23:18:24.921Z,102175.31
2022-12-01T23:20:57.787Z,102172.69
2022-12-01T23:23:35.629Z,102169.25
2022-12-01T23:26:08.464Z,102164.94
2022-12-01T23:28:38.544Z,102156.31
2022-12-01T23:31:06.025Z,102161.50
2022-12-01T23:33:35.158Z,102166.59
2022-12-01T23:36:12.506Z,102161.47
2022-12-01T23:38:44.906Z,102158.00
2022-12-01T23:41:28.353Z,102156.44
2022-12-01T23:43:58.867Z,102156.44
2022-12-01T23:46:28.247Z,102156.31
2022-12-01T23:49:09.839Z,102154.72
2022-12-01T23:51:51.550Z,102150.41
2022-12-01T23:54:21.781Z,102149.50
2022-12-01T23:56:58.232Z,102156.38
2022-12-01T23:59:26.638Z,102153.78
